Time;durP1;ratioP1;P1;durP2;ratioP2;P2;SDS_P1;SDS_P2;PMS_P1;PMS_P2;Temp;Humidity;BMP_temperature;BMP_pressure;BME280_temperature;BME280_humidity;BME280_pressure;Samples;Min_cycle;Max_cycle;Signal;HPM_P1;HPM_P2
2022/02/15 00:00:21;;;;;;;;;;;24.50;40.70;;;;;;1469458;79;751;-73
2022/02/15 00:02:23;;;;;;;;;;;24.50;40.70;;;;;;1474828;80;684;-75
2022/02/15 00:04:25;;;;;;;;;;;24.50;40.70;;;;;;1470398;79;1146;-73
2022/02/15 00:06:27;;;;;;;;;;;24.50;40.80;;;;;;1478004;80;848;-73
2022/02/15 00:08:29;;;;;;;;;;;24.50;40.80;;;;;;1475806;80;1947;-73
2022/02/15 00:10:31;;;;;;;;;;;24.40;40.70;;;;;;1474474;80;909;-74
2022/02/15 00:12:32;;;;;;;;;;;24.40;40.70;;;;;;1466199;79;743;-74
2022/02/15 00:14:34;;;;;;;;;;;24.50;40.90;;;;;;1477166;80;1138;-73
2022/02/15 00:16:36;;;;;;;;;;;24.50;40.90;;;;;;1472312;80;746;-76
2022/02/15 00:18:38;;;;;;;;;;;24.50;41.00;;;;;;1476690;80;762;-75
2022/02/15 00:20:41;;;;;;;;;;;24.50;40.90;;;;;;1477383;79;742;-74
2022/02/15 00:22:43;;;;;;;;;;;24.50;41.00;;;;;;1461236;80;772;-71
2022/02/15 00:24:45;;;;;;;;;;;24.50;40.90;;;;;;1471948;80;1130;-72
2022/02/15 00:26:48;;;;;;;;;;;24.50;40.90;;;;;;1477991;80;790;-74
2022/02/15 00:28:50;;;;;;;;;;;24.50;40.90;;;;;;1477387;79;1901;-73
2022/02/15 00:30:52;;;;;;;;;;;24.50;41.00;;;;;;1476818;79;723;-73
2022/02/15 00:32:54;;;;;;;;;;;24.40;41.00;;;;;;1474661;80;720;-73
2022/02/15 00:34:56;;;;;;;;;;;24.50;41.00;;;;;;1476623;80;1157;-73
2022/02/15 00:36:58;;;;;;;;;;;24.50;41.00;;;;;;1474179;80;760;-73
2022/02/15 00:38:59;;;;;;;;;;;24.50;41.00;;;;;;1474185;79;709;-75
2022/02/15 00:41:03;;;;;;;;;;;24.50;41.10;;;;;;1477539;80;752;-73
2022/02/15 00:43:05;;;;;;;;;;;24.40;41.00;;;;;;1477982;80;783;-72
2022/02/15 00:45:07;;;;;;;;;;;24.50;41.10;;;;;;1477988;80;1146;-72
2022/02/15 00:47:09;;;;;;;;;;;24.50;41.20;;;;;;1477894;79;737;-74
2022/02/15 00:49:11;;;;;;;;;;;24.40;41.20;;;;;;1477038;79;1929;-73
2022/02/15 00:51:13;;;;;;;;;;;24.40;41.20;;;;;;1478052;80;768;-73
2022/02/15 00:53:15;;;;;;;;;;;24.40;41.30;;;;;;1478063;80;732;-73
2022/02/15 00:55:17;;;;;;;;;;;24.40;41.30;;;;;;1478023;80;1131;-73
2022/02/15 00:57:19;;;;;;;;;;;24.40;41.30;;;;;;1474266;80;568;-72
2022/02/15 00:59:21;;;;;;;;;;;24.30;41.30;;;;;;1477370;79;673;-74
2022/02/15 01:01:23;;;;;;;;;;;24.40;41.30;;;;;;1474361;80;749;-76
2022/02/15 01:03:24;;;;;;;;;;;24.30;41.30;;;;;;1478168;80;778;-72
2022/02/15 01:05:26;;;;;;;;;;;24.40;41.30;;;;;;1477975;80;1161;-72
2022/02/15 01:07:28;;;;;;;;;;;24.30;41.30;;;;;;1478064;79;728;-72
2022/02/15 01:09:30;;;;;;;;;;;24.30;41.30;;;;;;1477811;80;1944;-73
2022/02/15 01:11:32;;;;;;;;;;;24.40;41.40;;;;;;1478083;80;795;-73
2022/02/15 01:13:34;;;;;;;;;;;24.40;41.40;;;;;;1476103;80;783;-73
2022/02/15 01:15:36;;;;;;;;;;;24.30;41.40;;;;;;1477177;79;1089;-74
2022/02/15 01:17:38;;;;;;;;;;;24.40;41.40;;;;;;1478087;80;760;-76
2022/02/15 01:19:39;;;;;;;;;;;24.30;41.40;;;;;;1477126;79;741;-77
2022/02/15 01:21:41;;;;;;;;;;;24.30;41.40;;;;;;1474506;80;733;-73
2022/02/15 01:23:43;;;;;;;;;;;24.40;41.40;;;;;;1471770;79;736;-72
2022/02/15 01:25:45;;;;;;;;;;;24.40;41.50;;;;;;1476962;80;1225;-73
2022/02/15 01:27:47;;;;;;;;;;;24.40;41.40;;;;;;1475539;80;1950;-73
2022/02/15 01:29:49;;;;;;;;;;;24.40;41.40;;;;;;1474442;79;658;-72
2022/02/15 01:31:51;;;;;;;;;;;24.40;41.40;;;;;;1474745;80;738;-75
2022/02/15 01:33:53;;;;;;;;;;;24.40;41.30;;;;;;1477983;79;805;-76
2022/02/15 01:35:54;;;;;;;;;;;24.50;41.50;;;;;;1477612;79;1226;-77
2022/02/15 01:37:56;;;;;;;;;;;24.50;41.40;;;;;;1477619;80;704;-72
2022/02/15 01:39:58;;;;;;;;;;;24.40;41.30;;;;;;1478095;80;740;-72
2022/02/15 01:42:01;;;;;;;;;;;24.50;41.30;;;;;;1474313;80;831;-72
2022/02/15 01:44:03;;;;;;;;;;;24.40;41.20;;;;;;1477441;79;753;-73
2022/02/15 01:46:05;;;;;;;;;;;24.40;41.30;;;;;;1477900;80;1126;-74
2022/02/15 01:48:08;;;;;;;;;;;24.40;41.30;;;;;;1478005;80;1923;-73
2022/02/15 01:50:10;;;;;;;;;;;24.50;41.30;;;;;;1474036;79;654;-72
2022/02/15 01:52:12;;;;;;;;;;;24.40;41.30;;;;;;1471418;80;784;-72
2022/02/15 01:54:14;;;;;;;;;;;24.40;41.30;;;;;;1474371;80;791;-73
2022/02/15 01:56:16;;;;;;;;;;;24.40;41.40;;;;;;1478080;80;1168;-76
2022/02/15 01:58:18;;;;;;;;;;;24.40;41.40;;;;;;1470304;79;729;-72
2022/02/15 02:00:20;;;;;;;;;;;24.40;41.40;;;;;;1475421;80;710;-74
2022/02/15 02:02:25;;;;;;;;;;;24.40;41.40;;;;;;1471719;79;824;-73
2022/02/15 02:06:47;;;;;;;;;;;24.30;41.50;;;;;;1468947;79;1675;-72
2022/02/15 02:08:49;;;;;;;;;;;24.30;41.50;;;;;;1465987;80;1949;-75
2022/02/15 02:10:51;;;;;;;;;;;24.30;41.60;;;;;;1478245;80;749;-72
2022/02/15 02:12:53;;;;;;;;;;;24.40;41.60;;;;;;1466703;80;743;-75
2022/02/15 02:14:59;;;;;;;;;;;24.30;41.60;;;;;;1477384;79;1211;-80
2022/02/15 02:17:01;;;;;;;;;;;24.40;41.60;;;;;;1473715;80;772;-75
2022/02/15 02:19:03;;;;;;;;;;;24.40;41.60;;;;;;1469588;79;717;-73
2022/02/15 02:21:05;;;;;;;;;;;24.40;41.50;;;;;;1478269;80;739;-73
2022/02/15 02:23:10;;;;;;;;;;;24.50;41.70;;;;;;1469550;80;701;-72
2022/02/15 02:25:13;;;;;;;;;;;24.40;41.50;;;;;;1475647;78;2062;-70
2022/02/15 02:27:16;;;;;;;;;;;24.30;41.60;;;;;;1474407;78;675;-69
2022/02/15 02:29:18;;;;;;;;;;;24.30;41.60;;;;;;1474561;79;1927;-71
2022/02/15 02:31:20;;;;;;;;;;;24.40;41.50;;;;;;1474425;80;720;-70
2022/02/15 02:33:22;;;;;;;;;;;24.30;41.60;;;;;;1474256;80;720;-71
2022/02/15 02:35:24;;;;;;;;;;;24.30;41.60;;;;;;1477141;80;1233;-70
2022/02/15 02:37:25;;;;;;;;;;;24.30;41.60;;;;;;1504618;78;701;-71
2022/02/15 02:39:27;;;;;;;;;;;24.30;41.60;;;;;;1513706;78;720;-71
2022/02/15 02:41:29;;;;;;;;;;;24.30;41.70;;;;;;1511949;78;773;-71
2022/02/15 02:43:31;;;;;;;;;;;24.30;41.60;;;;;;1507094;78;696;-71
2022/02/15 02:45:33;;;;;;;;;;;24.30;41.60;;;;;;1502830;78;1156;-71
2022/02/15 02:47:35;;;;;;;;;;;24.30;41.60;;;;;;1505451;78;842;-71
2022/02/15 02:49:37;;;;;;;;;;;24.30;41.60;;;;;;1500053;78;1945;-70
2022/02/15 02:51:38;;;;;;;;;;;24.40;41.60;;;;;;1510260;78;731;-71
2022/02/15 02:53:40;;;;;;;;;;;24.30;41.70;;;;;;1502536;78;769;-69
2022/02/15 02:55:42;;;;;;;;;;;24.30;41.70;;;;;;1509746;78;1195;-70
2022/02/15 02:57:44;;;;;;;;;;;24.40;41.70;;;;;;1504926;78;627;-71
2022/02/15 02:59:46;;;;;;;;;;;24.30;41.70;;;;;;1506288;78;733;-71
2022/02/15 03:01:48;;;;;;;;;;;24.30;41.70;;;;;;1507199;78;715;-71
2022/02/15 03:03:50;;;;;;;;;;;24.30;41.70;;;;;;1501595;78;727;-71
2022/02/15 03:05:52;;;;;;;;;;;24.30;41.80;;;;;;1508302;78;1132;-71
2022/02/15 03:07:53;;;;;;;;;;;24.30;41.70;;;;;;1501699;78;733;-71
2022/02/15 03:09:55;;;;;;;;;;;24.40;41.70;;;;;;1512422;78;1946;-72
2022/02/15 03:11:57;;;;;;;;;;;24.30;41.70;;;;;;1505342;78;720;-71
2022/02/15 03:13:59;;;;;;;;;;;24.30;41.80;;;;;;1502683;78;723;-72
2022/02/15 03:16:01;;;;;;;;;;;24.30;41.80;;;;;;1502940;78;1161;-71
2022/02/15 03:18:03;;;;;;;;;;;24.30;41.80;;;;;;1496995;78;737;-73
2022/02/15 03:20:05;;;;;;;;;;;24.30;41.80;;;;;;1486347;78;666;-72
2022/02/15 03:22:07;;;;;;;;;;;24.40;41.80;;;;;;1497811;78;732;-74
2022/02/15 03:24:09;;;;;;;;;;;24.30;41.80;;;;;;1499011;78;731;-73
2022/02/15 03:26:11;;;;;;;;;;;24.40;41.80;;;;;;1507272;78;1150;-73
2022/02/15 03:28:13;;;;;;;;;;;24.40;41.80;;;;;;1499000;78;733;-73
2022/02/15 03:30:15;;;;;;;;;;;24.40;41.80;;;;;;1504204;78;1912;-73
2022/02/15 03:32:17;;;;;;;;;;;24.40;41.70;;;;;;1502896;78;708;-73
2022/02/15 03:34:19;;;;;;;;;;;24.50;41.80;;;;;;1504189;78;790;-72
2022/02/15 03:36:21;;;;;;;;;;;24.50;41.70;;;;;;1501871;78;1152;-72
2022/02/15 03:38:22;;;;;;;;;;;24.50;41.70;;;;;;1508333;78;650;-73
2022/02/15 03:43:04;;;;;;;;;;;24.50;41.60;;;;;;1514044;78;770;-72
2022/02/15 03:44:48;;;;;;;;;;;24.50;41.70;;;;;;1504254;78;1627;-72
2022/02/15 03:46:50;;;;;;;;;;;24.60;41.70;;;;;;1505453;78;715;-73
2022/02/15 03:48:52;;;;;;;;;;;24.60;41.70;;;;;;1507698;78;1947;-72
2022/02/15 03:50:53;;;;;;;;;;;24.60;41.70;;;;;;1505239;78;687;-72
2022/02/15 03:52:55;;;;;;;;;;;24.60;41.70;;;;;;1509471;78;683;-71
2022/02/15 03:54:57;;;;;;;;;;;24.50;41.80;;;;;;1506927;78;1136;-71
2022/02/15 03:56:59;;;;;;;;;;;24.50;42.00;;;;;;1511986;78;729;-70
2022/02/15 03:59:01;;;;;;;;;;;24.50;42.00;;;;;;1505156;78;740;-69
2022/02/15 04:01:03;;;;;;;;;;;24.50;42.00;;;;;;1505473;78;735;-71
2022/02/15 04:03:06;;;;;;;;;;;24.60;42.00;;;;;;1502990;78;781;-71
2022/02/15 04:05:08;;;;;;;;;;;24.60;42.10;;;;;;1501636;78;1181;-71
2022/02/15 04:07:10;;;;;;;;;;;24.60;42.10;;;;;;1508385;78;777;-71
2022/02/15 04:09:12;;;;;;;;;;;24.50;42.10;;;;;;1498304;78;1909;-71
2022/02/15 04:11:13;;;;;;;;;;;24.50;42.00;;;;;;1511269;78;743;-71
2022/02/15 04:13:15;;;;;;;;;;;24.50;42.10;;;;;;1505353;78;724;-71
2022/02/15 04:15:17;;;;;;;;;;;24.50;42.00;;;;;;1508936;78;1159;-72
2022/02/15 04:17:19;;;;;;;;;;;24.50;42.10;;;;;;1495654;78;685;-71
2022/02/15 04:19:21;;;;;;;;;;;24.50;42.10;;;;;;1495527;78;581;-72
2022/02/15 04:21:26;;;;;;;;;;;24.50;42.10;;;;;;1499101;78;725;-72
2022/02/15 04:23:28;;;;;;;;;;;24.50;42.00;;;;;;1501906;78;776;-72
2022/02/15 04:25:30;;;;;;;;;;;24.50;42.00;;;;;;1493180;78;1136;-72
2022/02/15 04:27:31;;;;;;;;;;;24.50;42.00;;;;;;1493359;78;756;-72
2022/02/15 04:29:33;;;;;;;;;;;24.50;42.00;;;;;;1513097;78;1937;-72
2022/02/15 04:31:35;;;;;;;;;;;24.50;42.00;;;;;;1503458;78;645;-73
2022/02/15 04:33:37;;;;;;;;;;;24.50;41.90;;;;;;1501424;78;763;-72
2022/02/15 04:35:39;;;;;;;;;;;24.50;41.90;;;;;;1509782;78;1161;-72
2022/02/15 04:37:41;;;;;;;;;;;24.50;41.80;;;;;;1489974;78;718;-72
2022/02/15 04:39:43;;;;;;;;;;;24.60;41.80;;;;;;1502490;78;734;-71
2022/02/15 04:41:45;;;;;;;;;;;24.60;41.80;;;;;;1493126;78;695;-71
2022/02/15 04:43:47;;;;;;;;;;;24.60;41.70;;;;;;1491653;78;728;-69
2022/02/15 04:45:48;;;;;;;;;;;24.60;41.60;;;;;;1498963;78;1153;-71
2022/02/15 04:47:50;;;;;;;;;;;24.60;41.60;;;;;;1513602;78;710;-75
2022/02/15 04:49:52;;;;;;;;;;;24.60;41.60;;;;;;1494093;78;1929;-73
2022/02/15 04:51:54;;;;;;;;;;;24.60;41.70;;;;;;1502425;78;748;-73
2022/02/15 04:53:57;;;;;;;;;;;24.60;41.70;;;;;;1506870;78;730;-72
2022/02/15 04:56:02;;;;;;;;;;;24.50;41.80;;;;;;1516004;78;1170;-73
2022/02/15 04:58:02;;;;;;;;;;;24.60;41.70;;;;;;1499273;77;1112;-72
2022/02/15 05:00:05;;;;;;;;;;;24.70;41.90;;;;;;1508567;78;731;-73
2022/02/15 05:02:07;;;;;;;;;;;24.70;41.80;;;;;;1511818;78;715;-72
2022/02/15 05:06:28;;;;;;;;;;;24.60;41.70;;;;;;1511900;78;1629;-73
2022/02/15 05:08:30;;;;;;;;;;;24.60;41.60;;;;;;1492536;78;685;-73
2022/02/15 05:10:32;;;;;;;;;;;24.60;41.50;;;;;;1513818;78;1932;-74
2022/02/15 05:12:36;;;;;;;;;;;24.70;41.60;;;;;;1510528;78;603;-72
2022/02/15 05:14:37;;;;;;;;;;;24.60;41.50;;;;;;1502544;77;1108;-72
2022/02/15 05:16:39;;;;;;;;;;;24.70;41.60;;;;;;1499611;78;1149;-76
2022/02/15 05:18:41;;;;;;;;;;;24.60;41.50;;;;;;1500481;78;699;-72
2022/02/15 05:20:43;;;;;;;;;;;24.70;41.50;;;;;;1493457;78;661;-73
2022/02/15 05:22:45;;;;;;;;;;;24.70;41.50;;;;;;1501616;78;752;-72
2022/02/15 05:24:47;;;;;;;;;;;24.70;41.40;;;;;;1506302;78;1169;-73
2022/02/15 05:26:49;;;;;;;;;;;24.70;41.40;;;;;;1496622;78;797;-75
2022/02/15 05:28:51;;;;;;;;;;;24.70;41.40;;;;;;1501297;78;716;-73
2022/02/15 05:30:52;;;;;;;;;;;24.70;41.40;;;;;;1507155;78;1935;-71
2022/02/15 05:32:54;;;;;;;;;;;24.70;41.40;;;;;;1510070;78;782;-73
2022/02/15 05:34:56;;;;;;;;;;;24.70;41.50;;;;;;1507762;78;1160;-73
2022/02/15 05:36:58;;;;;;;;;;;24.60;41.30;;;;;;1503405;78;707;-72
2022/02/15 05:39:00;;;;;;;;;;;24.60;41.50;;;;;;1502894;78;679;-72
2022/02/15 05:41:02;;;;;;;;;;;24.60;41.50;;;;;;1496977;78;716;-74
2022/02/15 05:43:06;;;;;;;;;;;24.60;41.50;;;;;;1497369;78;724;-74
2022/02/15 05:45:08;;;;;;;;;;;24.60;41.60;;;;;;1496051;78;1152;-72
2022/02/15 05:47:10;;;;;;;;;;;24.60;41.50;;;;;;1493054;78;720;-72
2022/02/15 05:49:11;;;;;;;;;;;24.60;41.50;;;;;;1492727;78;702;-72
2022/02/15 05:51:13;;;;;;;;;;;24.60;41.50;;;;;;1492783;78;1942;-73
2022/02/15 05:53:15;;;;;;;;;;;24.70;41.70;;;;;;1493551;78;709;-70
2022/02/15 05:55:17;;;;;;;;;;;24.60;41.60;;;;;;1493298;78;1156;-72
2022/02/15 05:57:19;;;;;;;;;;;24.60;41.60;;;;;;1492841;78;730;-72
2022/02/15 05:59:21;;;;;;;;;;;24.70;41.70;;;;;;1491093;78;714;-72
2022/02/15 06:01:23;;;;;;;;;;;24.70;41.50;;;;;;1492456;78;711;-72
2022/02/15 06:05:44;;;;;;;;;;;24.80;41.30;;;;;;1507830;78;1671;-71
2022/02/15 06:07:46;;;;;;;;;;;24.80;41.20;;;;;;1503955;78;711;-71
2022/02/15 06:09:48;;;;;;;;;;;24.80;41.20;;;;;;1510788;78;1929;-73
2022/02/15 06:11:50;;;;;;;;;;;24.80;41.10;;;;;;1506709;78;711;-72
2022/02/15 06:13:55;;;;;;;;;;;24.70;41.30;;;;;;1502836;78;708;-74
2022/02/15 06:15:55;;;;;;;;;;;24.70;41.40;;;;;;1507335;77;1151;-72
2022/02/15 06:17:57;;;;;;;;;;;24.70;41.50;;;;;;1488953;78;691;-72
2022/02/15 06:19:59;;;;;;;;;;;24.70;41.50;;;;;;1502123;78;710;-71
2022/02/15 06:22:01;;;;;;;;;;;24.60;41.50;;;;;;1507602;78;700;-66
2022/02/15 06:24:03;;;;;;;;;;;24.60;41.50;;;;;;1510626;78;638;-72
2022/02/15 06:26:05;;;;;;;;;;;24.60;41.70;;;;;;1500048;78;1173;-70
2022/02/15 06:28:06;;;;;;;;;;;24.60;41.70;;;;;;1514588;78;780;-70
2022/02/15 06:30:09;;;;;;;;;;;24.70;41.80;;;;;;1498556;78;1935;-69
2022/02/15 06:32:11;;;;;;;;;;;24.70;41.80;;;;;;1500899;78;710;-74
2022/02/15 06:34:14;;;;;;;;;;;24.70;41.70;;;;;;1509664;78;707;-73
2022/02/15 06:36:16;;;;;;;;;;;24.80;41.70;;;;;;1506790;78;1167;-72
2022/02/15 06:38:18;;;;;;;;;;;24.80;41.50;;;;;;1514102;78;726;-71
2022/02/15 06:40:20;;;;;;;;;;;24.80;41.40;;;;;;1491029;78;709;-72
2022/02/15 06:42:22;;;;;;;;;;;24.80;41.30;;;;;;1511377;78;673;-72
2022/02/15 06:44:24;;;;;;;;;;;24.80;41.30;;;;;;1508165;78;699;-72
2022/02/15 06:46:26;;;;;;;;;;;24.80;41.20;;;;;;1501220;78;1116;-74
2022/02/15 06:48:28;;;;;;;;;;;24.80;41.20;;;;;;1509800;78;732;-72
2022/02/15 06:50:30;;;;;;;;;;;24.80;41.10;;;;;;1493789;78;1942;-71
2022/02/15 06:52:32;;;;;;;;;;;24.80;41.10;;;;;;1512387;78;727;-71
2022/02/15 06:54:34;;;;;;;;;;;24.80;41.00;;;;;;1509197;78;726;-71
2022/02/15 06:56:37;;;;;;;;;;;24.80;41.00;;;;;;1500583;78;1117;-73
2022/02/15 06:58:39;;;;;;;;;;;24.80;41.00;;;;;;1505930;78;1135;-72
2022/02/15 07:00:41;;;;;;;;;;;24.80;40.90;;;;;;1505398;78;912;-71
2022/02/15 07:02:43;;;;;;;;;;;24.80;40.90;;;;;;1512526;78;730;-71
2022/02/15 07:04:45;;;;;;;;;;;24.80;40.80;;;;;;1506353;78;1128;-70
2022/02/15 07:06:47;;;;;;;;;;;24.90;40.90;;;;;;1498794;78;707;-72
2022/02/15 07:08:49;;;;;;;;;;;24.80;40.70;;;;;;1494041;78;965;-71
2022/02/15 07:10:54;;;;;;;;;;;24.80;40.70;;;;;;1506990;78;1933;-72
2022/02/15 07:12:54;;;;;;;;;;;24.80;40.70;;;;;;1500190;77;1145;-74
2022/02/15 07:14:56;;;;;;;;;;;24.80;40.70;;;;;;1500549;78;1110;-73
2022/02/15 07:16:58;;;;;;;;;;;24.80;40.70;;;;;;1497031;78;700;-70
2022/02/15 07:19:00;;;;;;;;;;;24.80;40.70;;;;;;1495891;78;721;-71
2022/02/15 07:21:02;;;;;;;;;;;24.90;40.80;;;;;;1495751;78;766;-68
2022/02/15 07:23:06;;;;;;;;;;;24.80;40.80;;;;;;1495069;78;777;-68
2022/02/15 07:25:08;;;;;;;;;;;24.80;40.70;;;;;;1492809;78;1230;-71
2022/02/15 07:27:10;;;;;;;;;;;24.70;40.50;;;;;;1496051;78;765;-70
2022/02/15 07:29:12;;;;;;;;;;;24.60;40.20;;;;;;1497768;78;827;-70
2022/02/15 07:31:14;;;;;;;;;;;24.50;40.00;;;;;;1501887;78;1969;-69
2022/02/15 07:33:16;;;;;;;;;;;24.50;39.90;;;;;;1467557;80;678;-70
2022/02/15 07:35:18;;;;;;;;;;;24.50;39.70;;;;;;1465671;80;1175;-70
2022/02/15 07:37:20;;;;;;;;;;;24.40;39.50;;;;;;1477037;80;691;-71
2022/02/15 07:39:22;;;;;;;;;;;24.30;39.40;;;;;;1466747;80;730;-71
2022/02/15 07:41:24;;;;;;;;;;;24.30;39.10;;;;;;1479121;80;684;-70
2022/02/15 07:43:26;;;;;;;;;;;24.30;39.20;;;;;;1477881;80;768;-70
2022/02/15 07:45:27;;;;;;;;;;;24.30;39.10;;;;;;1478371;80;1156;-69
2022/02/15 07:47:29;;;;;;;;;;;24.20;39.00;;;;;;1476629;80;645;-68
2022/02/15 07:49:31;;;;;;;;;;;24.20;39.00;;;;;;1477500;80;725;-69
2022/02/15 07:51:33;;;;;;;;;;;24.20;38.90;;;;;;1477425;80;1913;-71
2022/02/15 07:53:35;;;;;;;;;;;24.10;39.00;;;;;;1477356;80;706;-68
2022/02/15 07:55:37;;;;;;;;;;;24.00;38.80;;;;;;1477499;80;1166;-70
2022/02/15 07:57:41;;;;;;;;;;;24.00;38.80;;;;;;1476788;80;647;-69
2022/02/15 07:59:42;;;;;;;;;;;24.10;38.90;;;;;;1477200;80;651;-71
2022/02/15 08:01:44;;;;;;;;;;;24.00;38.80;;;;;;1478028;80;724;-68
2022/02/15 08:03:46;;;;;;;;;;;24.00;38.60;;;;;;1482998;79;779;-69
2022/02/15 08:05:48;;;;;;;;;;;24.00;38.60;;;;;;1479530;80;1151;-68
2022/02/15 08:07:51;;;;;;;;;;;24.00;38.60;;;;;;1479519;79;744;-69
2022/02/15 08:09:52;;;;;;;;;;;23.90;38.60;;;;;;1482309;79;703;-69
2022/02/15 08:11:58;;;;;;;;;;;23.90;38.50;;;;;;1481340;79;1947;-69
2022/02/15 08:14:00;;;;;;;;;;;23.90;38.50;;;;;;1483036;79;759;-71
2022/02/15 08:16:02;;;;;;;;;;;23.90;38.50;;;;;;1480242;79;1166;-69
2022/02/15 08:18:04;;;;;;;;;;;23.90;38.40;;;;;;1478189;79;768;-70
2022/02/15 08:20:06;;;;;;;;;;;23.90;38.40;;;;;;1474467;80;721;-69
2022/02/15 08:22:08;;;;;;;;;;;23.80;38.20;;;;;;1481075;80;796;-72
2022/02/15 08:24:10;;;;;;;;;;;23.80;38.10;;;;;;1483258;79;720;-69
2022/02/15 08:26:12;;;;;;;;;;;23.80;38.10;;;;;;1478045;80;1205;-69
2022/02/15 08:28:14;;;;;;;;;;;23.80;38.10;;;;;;1478448;80;774;-69
2022/02/15 08:30:16;;;;;;;;;;;23.70;38.10;;;;;;1476973;80;1904;-68
2022/02/15 08:32:18;;;;;;;;;;;23.70;38.10;;;;;;1486076;79;729;-69
2022/02/15 08:34:20;;;;;;;;;;;23.70;38.00;;;;;;1479608;79;709;-70
2022/02/15 08:36:22;;;;;;;;;;;23.70;38.10;;;;;;1478967;79;1174;-69
2022/02/15 08:38:23;;;;;;;;;;;23.70;38.00;;;;;;1483702;80;708;-68
2022/02/15 08:40:25;;;;;;;;;;;23.60;38.00;;;;;;1482670;79;710;-70
2022/02/15 08:42:27;;;;;;;;;;;23.70;38.00;;;;;;1482288;79;717;-71
2022/02/15 08:44:29;;;;;;;;;;;23.70;38.00;;;;;;1483205;79;720;-69
2022/02/15 08:46:31;;;;;;;;;;;23.70;38.10;;;;;;1482259;79;1137;-70
2022/02/15 08:48:33;;;;;;;;;;;23.70;38.00;;;;;;1483914;79;767;-70
2022/02/15 08:50:35;;;;;;;;;;;23.60;37.80;;;;;;1478133;79;1932;-69
2022/02/15 08:52:36;;;;;;;;;;;23.60;37.80;;;;;;1482453;79;727;-68
2022/02/15 08:54:38;;;;;;;;;;;23.70;37.80;;;;;;1483633;79;676;-69
2022/02/15 08:56:40;;;;;;;;;;;23.60;37.70;;;;;;1476621;80;1251;-71
2022/02/15 08:58:42;;;;;;;;;;;23.60;37.60;;;;;;1479000;80;731;-71
2022/02/15 09:00:44;;;;;;;;;;;23.60;37.50;;;;;;1478495;80;715;-70
2022/02/15 09:02:46;;;;;;;;;;;23.60;37.60;;;;;;1478870;79;722;-68
2022/02/15 09:04:48;;;;;;;;;;;23.60;37.40;;;;;;1478922;79;1198;-68
2022/02/15 09:06:51;;;;;;;;;;;23.60;37.40;;;;;;1480576;79;743;-68
2022/02/15 09:08:53;;;;;;;;;;;23.60;37.60;;;;;;1478291;80;699;-68
2022/02/15 09:10:55;;;;;;;;;;;23.60;37.50;;;;;;1476826;80;1933;-69
2022/02/15 09:12:57;;;;;;;;;;;23.50;37.50;;;;;;1476543;80;743;-69
2022/02/15 09:14:59;;;;;;;;;;;23.50;37.50;;;;;;1472829;80;1115;-67
2022/02/15 09:17:01;;;;;;;;;;;23.60;37.50;;;;;;1462574;80;733;-68
2022/02/15 09:19:03;;;;;;;;;;;23.50;37.50;;;;;;1459652;80;774;-68
2022/02/15 09:21:05;;;;;;;;;;;23.60;37.40;;;;;;1462319;80;734;-69
2022/02/15 09:23:06;;;;;;;;;;;23.50;37.30;;;;;;1461940;80;708;-70
2022/02/15 09:25:10;;;;;;;;;;;23.50;37.30;;;;;;1461496;80;1191;-70
2022/02/15 09:27:12;;;;;;;;;;;23.50;37.40;;;;;;1466870;80;731;-68
2022/02/15 09:29:15;;;;;;;;;;;23.50;37.40;;;;;;1461092;80;905;-69
2022/02/15 09:31:17;;;;;;;;;;;23.50;37.30;;;;;;1464033;80;1916;-68
2022/02/15 09:33:18;;;;;;;;;;;23.40;37.10;;;;;;1460843;80;746;-70
2022/02/15 09:35:20;;;;;;;;;;;23.50;37.30;;;;;;1463971;80;1216;-70
2022/02/15 09:37:22;;;;;;;;;;;23.50;37.20;;;;;;1458672;80;730;-68
2022/02/15 09:39:24;;;;;;;;;;;23.40;37.10;;;;;;1463033;80;725;-67
2022/02/15 09:41:28;;;;;;;;;;;23.40;37.10;;;;;;1461342;80;729;-67
2022/02/15 09:43:29;;;;;;;;;;;23.40;37.20;;;;;;1460555;80;793;-69
2022/02/15 09:45:31;;;;;;;;;;;23.50;37.30;;;;;;1458678;80;1136;-69
2022/02/15 09:47:34;;;;;;;;;;;23.40;37.20;;;;;;1465335;80;773;-72
2022/02/15 09:49:48;;;;;;;;;;;23.40;37.00;;;;;;1461747;80;714;-68
2022/02/15 09:51:50;;;;;;;;;;;23.50;37.20;;;;;;1465080;80;1925;-69
2022/02/15 09:53:52;;;;;;;;;;;23.40;37.00;;;;;;1465474;80;691;-70
2022/02/15 09:55:54;;;;;;;;;;;23.50;37.20;;;;;;1465200;80;1289;-69
2022/02/15 09:57:56;;;;;;;;;;;23.40;37.00;;;;;;1465882;80;754;-71
2022/02/15 09:59:58;;;;;;;;;;;23.50;37.20;;;;;;1465126;80;774;-70
2022/02/15 10:02:02;;;;;;;;;;;23.50;37.10;;;;;;1462248;80;755;-71
2022/02/15 10:04:05;;;;;;;;;;;23.40;36.90;;;;;;1491951;78;702;-68
2022/02/15 10:06:08;;;;;;;;;;;23.40;36.90;;;;;;1493432;78;1648;-69
2022/02/15 10:08:10;;;;;;;;;;;23.40;36.90;;;;;;1490722;78;1116;-72
2022/02/15 10:10:12;;;;;;;;;;;23.40;36.80;;;;;;1493518;78;725;-68
2022/02/15 10:12:17;;;;;;;;;;;23.40;36.80;;;;;;1491552;78;1906;-71
2022/02/15 10:14:23;;;;;;;;;;;23.40;36.80;;;;;;1492644;78;740;-68
2022/02/15 10:16:22;;;;;;;;;;;23.50;37.00;;;;;;1489770;78;1164;-69
2022/02/15 10:18:29;;;;;;;;;;;23.50;37.00;;;;;;1492862;78;805;-68
2022/02/15 10:20:32;;;;;;;;;;;23.50;36.90;;;;;;1490282;78;1000;-69
2022/02/15 10:22:35;;;;;;;;;;;23.50;36.80;;;;;;1491936;78;837;-67
2022/02/15 10:24:38;;;;;;;;;;;23.50;36.70;;;;;;1490731;78;751;-69
2022/02/15 10:26:40;;;;;;;;;;;23.50;36.70;;;;;;1489700;78;1142;-68
2022/02/15 10:28:41;;;;;;;;;;;23.40;36.60;;;;;;1488604;78;808;-68
2022/02/15 10:30:47;;;;;;;;;;;23.40;36.60;;;;;;1490833;78;789;-70
2022/02/15 10:32:48;;;;;;;;;;;23.50;36.60;;;;;;1491124;78;1927;-70
2022/02/15 10:34:56;;;;;;;;;;;23.40;36.40;;;;;;1489476;78;1216;-70
2022/02/15 10:37:01;;;;;;;;;;;23.40;36.40;;;;;;1490763;78;1524;-68
2022/02/15 10:39:03;;;;;;;;;;;23.50;36.50;;;;;;1483268;78;747;-70
2022/02/15 10:41:06;;;;;;;;;;;23.40;36.30;;;;;;1466105;80;708;-71
2022/02/15 10:43:08;;;;;;;;;;;23.40;36.30;;;;;;1489887;78;1058;-68
2022/02/15 10:45:10;;;;;;;;;;;23.50;36.50;;;;;;1486309;78;1265;-69
2022/02/15 10:47:12;;;;;;;;;;;23.40;36.20;;;;;;1487210;78;712;-69
2022/02/15 10:49:14;;;;;;;;;;;23.50;36.50;;;;;;1484043;79;755;-69
2022/02/15 10:51:16;;;;;;;;;;;23.50;36.50;;;;;;1483569;79;1958;-68
2022/02/15 10:53:18;;;;;;;;;;;23.50;36.40;;;;;;1487465;78;734;-70
2022/02/15 10:55:19;;;;;;;;;;;23.40;36.30;;;;;;1484341;78;1165;-70
2022/02/15 10:57:24;;;;;;;;;;;23.40;36.30;;;;;;1488278;78;756;-70
2022/02/15 10:59:26;;;;;;;;;;;23.40;36.20;;;;;;1492598;78;772;-68
2022/02/15 11:01:28;;;;;;;;;;;23.50;36.30;;;;;;1487595;78;793;-67
2022/02/15 11:03:31;;;;;;;;;;;23.50;36.30;;;;;;1498168;78;736;-70
2022/02/15 11:05:33;;;;;;;;;;;23.40;36.40;;;;;;1496291;78;1172;-68
2022/02/15 11:07:36;;;;;;;;;;;23.40;36.50;;;;;;1498854;78;732;-69
2022/02/15 11:09:45;;;;;;;;;;;23.40;36.50;;;;;;1499761;78;722;-67
2022/02/15 11:12:07;;;;;;;;;;;23.40;36.40;;;;;;1496598;78;1906;-68
2022/02/15 11:14:09;;;;;;;;;;;23.40;36.30;;;;;;1488430;78;2072;-70
2022/02/15 11:16:12;;;;;;;;;;;23.40;36.30;;;;;;1491569;78;1158;-75
2022/02/15 11:18:19;;;;;;;;;;;23.40;36.10;;;;;;1503069;78;727;-70
2022/02/15 11:20:18;;;;;;;;;;;23.50;36.30;;;;;;1498017;77;1110;-72
2022/02/15 11:22:20;;;;;;;;;;;23.40;36.20;;;;;;1503308;78;969;-70
2022/02/15 11:24:22;;;;;;;;;;;23.40;36.20;;;;;;1505164;78;748;-70
2022/02/15 11:26:25;;;;;;;;;;;23.40;36.10;;;;;;1498256;78;1140;-72
2022/02/15 11:28:27;;;;;;;;;;;23.40;36.00;;;;;;1490735;77;1100;-70
2022/02/15 11:30:29;;;;;;;;;;;23.40;36.00;;;;;;1491004;78;801;-70
2022/02/15 11:32:32;;;;;;;;;;;23.40;36.00;;;;;;1493369;78;1932;-70
2022/02/15 11:34:34;;;;;;;;;;;23.40;36.00;;;;;;1500818;79;1144;-70
2022/02/15 11:36:52;;;;;;;;;;;23.30;35.90;;;;;;1503409;78;1122;-70
2022/02/15 11:38:55;;;;;;;;;;;23.40;35.90;;;;;;1493966;78;728;-72
2022/02/15 11:41:04;;;;;;;;;;;23.50;36.00;;;;;;1503210;78;709;-71
2022/02/15 11:43:06;;;;;;;;;;;23.40;36.00;;;;;;1500613;78;705;-70
2022/02/15 11:45:27;;;;;;;;;;;23.40;35.90;;;;;;1497242;78;1162;-72
2022/02/15 11:47:39;;;;;;;;;;;23.40;35.70;;;;;;1487888;78;705;-72
2022/02/15 11:49:32;;;;;;;;;;;23.40;35.80;;;;;;1494580;78;1101;-71
2022/02/15 11:51:34;;;;;;;;;;;23.40;35.90;;;;;;1492024;78;1950;-71
2022/02/15 11:53:36;;;;;;;;;;;23.40;35.90;;;;;;1485276;78;726;-72
2022/02/15 11:55:38;;;;;;;;;;;23.40;35.80;;;;;;1484550;78;1158;-71
2022/02/15 11:57:40;;;;;;;;;;;23.40;35.70;;;;;;1488007;78;734;-71
2022/02/15 11:59:42;;;;;;;;;;;23.40;35.80;;;;;;1488149;78;734;-71
2022/02/15 12:01:46;;;;;;;;;;;23.40;35.80;;;;;;1502604;77;957;-72
2022/02/15 12:03:49;;;;;;;;;;;23.40;35.70;;;;;;1495835;78;1064;-71
2022/02/15 12:05:52;;;;;;;;;;;23.50;35.80;;;;;;1503871;78;1269;-72
2022/02/15 12:07:54;;;;;;;;;;;23.40;35.80;;;;;;1492529;78;645;-74
2022/02/15 12:09:57;;;;;;;;;;;23.40;35.70;;;;;;1511356;78;762;-74
2022/02/15 12:11:59;;;;;;;;;;;23.40;35.70;;;;;;1504096;78;1964;-72
2022/02/15 12:14:08;;;;;;;;;;;23.50;35.90;;;;;;1500185;78;724;-72
2022/02/15 12:16:10;;;;;;;;;;;23.50;35.80;;;;;;1457141;80;1151;-72
2022/02/15 12:18:12;;;;;;;;;;;23.40;35.70;;;;;;1464765;79;727;-73